Terminal Aerodrome Forecast
Issued by NWS

Home | Current Version | Previous Version | Graphics & Text | Print | Product List | Glossary Off
Versions: 1 2 3 4 5 6 7 8 9 10 11 12 13 14 15 16

000
FTUS43 KBIS 300806 AAA
TAFJMS
TAF AMD
KJMS 300806Z 3008/3106 18010KT 4SM BR SCT250
      TEMPO 3008/3012 2SM BR BKN002
     FM301600 17012G18KT P6SM FEW250
     FM301900 18020G28KT P6SM FEW250
     FM310200 17015KT P6SM SCT250=

USA.gov is the U.S. government's official web portal to all federal, state and local government web resources and services.